Rialto, CA (92376)

4:07 PM PDT on July 30, 2016 (GMT -0700)
Apple Avenue | | Change Station
Active Advisory: Areal Flood Advisory Active Notice: Record Report

Elev 1456 ft 34.14 °N, 117.38 °W | Updated 5 minutes ago

Haze
Haze
99.0 °F
Feels Like 106 °F
N
4.3
Wind Variable Wind from West
Gusts 9.9 mph

Today
High -- | Low -- °F
--% Chance of Precip.
Yesterday
High -- | Low -- °F
Precip. -- in
Pressure 29.82 in
Visibility 3.0 miles
Clouds Mostly Cloudy 2900 ft
Heat Index 106 °F
Dew Point 70 °F
Humidity 38%
Rainfall 0.00 in
Snow Depth Not available.
5:59 AM 7:51 PM
Waning Crescent, 10% visible
METAR KSBD 302245Z 26015KT 3SM HZ BKN029 37/13 A2982
Pressure 29.82 in
Visibility 3.0 miles
Clouds Mostly Cloudy 2900 ft
Heat Index 106 °F
Dew Point 70 °F
Humidity 38%
Rainfall 0.00 in
Snow Depth Not available.
5:59 AM 7:51 PM
Waning Crescent, 10% visible
METAR KSBD 302245Z 26015KT 3SM HZ BKN029 37/13 A2982

10-Day Weather Forecast

Almanac

Astronomy

Jul. 30, 2016 Rise Set
Actual Time
Civil Twilight
Nautical Twilight
Astronomical Twilight
Moon
Length of Visible Light
Length of Day
Tomorrow will be .
, % of the Moon is Illuminated

Today's Extremes

State Highs State Lows

Community

WunderPhotos

Upload Photos

1,928,674 photos uploaded!

WunderBlog® & News

Nearby

Air Quality

  Air Quality AQ Index Pollutant
Not available.

Snow Depth

Station Depth Elevation

Earthquake Activity

City Distance Mag. Time & Date
Minimum magnitude displayed is 2.5.

Coastal Water Temperatures

Place Temperature

Stations

Nearby Weather Stations

Station Location Temp. Windchill Dew Point Humidity Wind Precip. Elev Updated Type
                   

Watches & Warnings

Areal Flood Advisory
Issued: 3:18 PM PDT Jul. 30, 2016 – National Weather Service

... The Flood Advisory remains in effect until 515 PM PDT for San
Bernardino and Riverside counties...

At 310 PM PDT... Doppler radar indicated 1.0 to 1.5 inches of
rainfall over parts of the advised area in the last 2 hours. This
will likely cause flows through normally dry washes and may lead to
debris on roadways.

Some locations that will likely experience impacts include...
Big Bear City... Big Bear Lake... mount san gorgonio... Onyx Summit...
and Hwy 38 between big bear and Angelus Oaks.

Lat... Lon 3440 11674 3432 11659 3420 11653 3410 11658
      3410 11660 3405 11661 3398 11665 3396 11679
      3399 11697 3433 11701 3442 11691


Albright